Terminal Aerodrome Forecast
Issued by NWS

Home | Current Version | Previous Version | Text Only | Print | Product List | Glossary On
Versions: 1 2 3 4 5 6 7 8 9 10 11 12 13 14 15 16 17 18 19 20 21 22 23 24
000
FTUS41 KCLE 250500
TAFFDY
TAF
KFDY 250540Z 2506/2606 20006KT P6SM BKN100
      TEMPO 2510/2512 5SM BR BKN050
     FM251300 23009KT P6SM BKN035
     FM251500 23012KT P6SM BKN012 OVC025
     FM251800 27015G22KT P6SM SCT025
     FM252300 28010KT P6SM SKC=

USA.gov is the U.S. government's official web portal to all federal, state and local government web resources and services.